sensor_id;sensor_type;location;lat;lon;timestamp;P1;durP1;ratioP1;P2;durP2;ratioP2
55292;SDS011;41157;53.560;10.098;2022-12-18T00:01:16;24.47;;;12.50;;
55292;SDS011;41157;53.560;10.098;2022-12-18T00:03:42;25.13;;;11.87;;
55292;SDS011;41157;53.560;10.098;2022-12-18T00:06:08;23.37;;;12.03;;
55292;SDS011;41157;53.560;10.098;2022-12-18T00:08:34;24.40;;;12.57;;
55292;SDS011;41157;53.560;10.098;2022-12-18T00:11:07;21.10;;;12.40;;
55292;SDS011;41157;53.560;10.098;2022-12-18T00:13:33;19.77;;;11.30;;
55292;SDS011;41157;53.560;10.098;2022-12-18T00:16:03;23.90;;;12.13;;
55292;SDS011;41157;53.560;10.098;2022-12-18T00:18:29;23.50;;;11.77;;
55292;SDS011;41157;53.560;10.098;2022-12-18T00:20:58;22.33;;;11.77;;
55292;SDS011;41157;53.560;10.098;2022-12-18T00:23:24;25.63;;;12.83;;
55292;SDS011;41157;53.560;10.098;2022-12-18T00:25:51;24.33;;;12.77;;
55292;SDS011;41157;53.560;10.098;2022-12-18T00:28:17;22.03;;;11.87;;
55292;SDS011;41157;53.560;10.098;2022-12-18T00:30:43;20.37;;;12.17;;
55292;SDS011;41157;53.560;10.098;2022-12-18T00:33:09;23.30;;;11.27;;
55292;SDS011;41157;53.560;10.098;2022-12-18T00:35:34;23.60;;;12.13;;
55292;SDS011;41157;53.560;10.098;2022-12-18T00:38:00;21.53;;;11.60;;
55292;SDS011;41157;53.560;10.098;2022-12-18T00:40:26;22.27;;;11.60;;
55292;SDS011;41157;53.560;10.098;2022-12-18T00:42:52;21.37;;;11.37;;
55292;SDS011;41157;53.560;10.098;2022-12-18T00:45:29;22.07;;;11.73;;
55292;SDS011;41157;53.560;10.098;2022-12-18T00:47:55;25.30;;;10.83;;
55292;SDS011;41157;53.560;10.098;2022-12-18T00:50:22;22.20;;;11.80;;
55292;SDS011;41157;53.560;10.098;2022-12-18T00:52:48;24.93;;;11.33;;
55292;SDS011;41157;53.560;10.098;2022-12-18T00:55:14;19.33;;;11.57;;
55292;SDS011;41157;53.560;10.098;2022-12-18T00:57:40;20.87;;;11.30;;
55292;SDS011;41157;53.560;10.098;2022-12-18T01:00:07;20.00;;;10.73;;
55292;SDS011;41157;53.560;10.098;2022-12-18T01:02:34;23.73;;;12.00;;
55292;SDS011;41157;53.560;10.098;2022-12-18T01:05:00;21.40;;;12.10;;
55292;SDS011;41157;53.560;10.098;2022-12-18T01:07:26;27.23;;;12.17;;
55292;SDS011;41157;53.560;10.098;2022-12-18T01:09:52;21.30;;;12.13;;
55292;SDS011;41157;53.560;10.098;2022-12-18T01:12:17;24.40;;;12.40;;
55292;SDS011;41157;53.560;10.098;2022-12-18T01:14:43;19.93;;;11.70;;
55292;SDS011;41157;53.560;10.098;2022-12-18T01:17:09;28.27;;;12.50;;
55292;SDS011;41157;53.560;10.098;2022-12-18T01:19:35;24.40;;;12.13;;
55292;SDS011;41157;53.560;10.098;2022-12-18T01:22:01;20.03;;;10.90;;
55292;SDS011;41157;53.560;10.098;2022-12-18T01:24:28;24.07;;;11.93;;
55292;SDS011;41157;53.560;10.098;2022-12-18T01:26:54;20.63;;;11.30;;
55292;SDS011;41157;53.560;10.098;2022-12-18T01:29:22;21.63;;;10.90;;
55292;SDS011;41157;53.560;10.098;2022-12-18T01:31:48;20.90;;;11.40;;
55292;SDS011;41157;53.560;10.098;2022-12-18T01:34:14;19.10;;;10.73;;
55292;SDS011;41157;53.560;10.098;2022-12-18T01:36:40;23.23;;;11.20;;
55292;SDS011;41157;53.560;10.098;2022-12-18T01:39:12;21.73;;;10.57;;
55292;SDS011;41157;53.560;10.098;2022-12-18T01:41:39;19.90;;;11.30;;
55292;SDS011;41157;53.560;10.098;2022-12-18T01:49:54;20.43;;;11.30;;
55292;SDS011;41157;53.560;10.098;2022-12-18T01:52:21;19.70;;;10.07;;
55292;SDS011;41157;53.560;10.098;2022-12-18T01:54:48;22.50;;;10.50;;
55292;SDS011;41157;53.560;10.098;2022-12-18T01:57:14;18.17;;;10.00;;
55292;SDS011;41157;53.560;10.098;2022-12-18T01:59:40;20.17;;;10.03;;
55292;SDS011;41157;53.560;10.098;2022-12-18T02:02:08;19.37;;;10.23;;
55292;SDS011;41157;53.560;10.098;2022-12-18T02:04:34;15.63;;;9.20;;
55292;SDS011;41157;53.560;10.098;2022-12-18T02:07:07;22.23;;;10.83;;
55292;SDS011;41157;53.560;10.098;2022-12-18T02:09:57;17.07;;;9.70;;
55292;SDS011;41157;53.560;10.098;2022-12-18T02:12:25;18.97;;;9.53;;
55292;SDS011;41157;53.560;10.098;2022-12-18T02:17:39;19.10;;;9.50;;
55292;SDS011;41157;53.560;10.098;2022-12-18T02:20:31;19.30;;;9.67;;
55292;SDS011;41157;53.560;10.098;2022-12-18T02:25:42;16.13;;;9.47;;
55292;SDS011;41157;53.560;10.098;2022-12-18T02:28:11;16.20;;;9.07;;
55292;SDS011;41157;53.560;10.098;2022-12-18T02:30:38;16.57;;;9.50;;
55292;SDS011;41157;53.560;10.098;2022-12-18T02:33:06;16.30;;;9.23;;
55292;SDS011;41157;53.560;10.098;2022-12-18T02:35:33;17.60;;;8.87;;
55292;SDS011;41157;53.560;10.098;2022-12-18T02:38:00;15.77;;;8.93;;
55292;SDS011;41157;53.560;10.098;2022-12-18T02:40:27;19.17;;;9.40;;
55292;SDS011;41157;53.560;10.098;2022-12-18T02:42:54;17.27;;;10.03;;
55292;SDS011;41157;53.560;10.098;2022-12-18T02:45:20;16.87;;;9.37;;
55292;SDS011;41157;53.560;10.098;2022-12-18T02:47:46;16.83;;;9.90;;
55292;SDS011;41157;53.560;10.098;2022-12-18T02:50:17;17.10;;;9.33;;
55292;SDS011;41157;53.560;10.098;2022-12-18T02:52:55;19.00;;;9.50;;
55292;SDS011;41157;53.560;10.098;2022-12-18T02:55:34;20.73;;;9.77;;
55292;SDS011;41157;53.560;10.098;2022-12-18T03:00:35;17.17;;;9.17;;
55292;SDS011;41157;53.560;10.098;2022-12-18T03:03:50;17.70;;;9.87;;
55292;SDS011;41157;53.560;10.098;2022-12-18T03:05:50;16.57;;;9.23;;
55292;SDS011;41157;53.560;10.098;2022-12-18T03:10:49;13.73;;;8.27;;
55292;SDS011;41157;53.560;10.098;2022-12-18T03:13:19;20.33;;;9.37;;
55292;SDS011;41157;53.560;10.098;2022-12-18T03:15:49;19.17;;;9.07;;
55292;SDS011;41157;53.560;10.098;2022-12-18T03:18:18;17.00;;;8.50;;
55292;SDS011;41157;53.560;10.098;2022-12-18T03:20:45;14.47;;;8.60;;
55292;SDS011;41157;53.560;10.098;2022-12-18T03:23:15;15.93;;;8.57;;
55292;SDS011;41157;53.560;10.098;2022-12-18T03:25:42;16.53;;;8.77;;
55292;SDS011;41157;53.560;10.098;2022-12-18T03:28:10;18.70;;;9.00;;
55292;SDS011;41157;53.560;10.098;2022-12-18T03:30:38;18.60;;;8.20;;
55292;SDS011;41157;53.560;10.098;2022-12-18T03:33:07;18.23;;;8.67;;
55292;SDS011;41157;53.560;10.098;2022-12-18T03:35:35;20.20;;;8.80;;
55292;SDS011;41157;53.560;10.098;2022-12-18T03:38:02;17.03;;;9.00;;
55292;SDS011;41157;53.560;10.098;2022-12-18T03:40:33;19.60;;;8.80;;
55292;SDS011;41157;53.560;10.098;2022-12-18T03:43:07;18.53;;;8.67;;
55292;SDS011;41157;53.560;10.098;2022-12-18T03:45:35;19.40;;;8.77;;
55292;SDS011;41157;53.560;10.098;2022-12-18T03:48:07;19.37;;;9.07;;
55292;SDS011;41157;53.560;10.098;2022-12-18T03:50:39;16.53;;;8.90;;
55292;SDS011;41157;53.560;10.098;2022-12-18T03:53:12;17.43;;;8.70;;
55292;SDS011;41157;53.560;10.098;2022-12-18T03:55:39;14.77;;;8.17;;
55292;SDS011;41157;53.560;10.098;2022-12-18T03:58:06;16.67;;;8.97;;
55292;SDS011;41157;53.560;10.098;2022-12-18T04:00:33;15.97;;;8.17;;
55292;SDS011;41157;53.560;10.098;2022-12-18T04:02:59;15.50;;;8.83;;
55292;SDS011;41157;53.560;10.098;2022-12-18T04:05:27;16.33;;;8.73;;
55292;SDS011;41157;53.560;10.098;2022-12-18T04:07:54;18.87;;;9.20;;
55292;SDS011;41157;53.560;10.098;2022-12-18T04:10:20;17.33;;;8.93;;
55292;SDS011;41157;53.560;10.098;2022-12-18T04:12:46;16.20;;;8.53;;
55292;SDS011;41157;53.560;10.098;2022-12-18T04:15:12;18.90;;;9.40;;
55292;SDS011;41157;53.560;10.098;2022-12-18T04:17:39;17.50;;;9.03;;
55292;SDS011;41157;53.560;10.098;2022-12-18T04:20:09;16.43;;;8.77;;
55292;SDS011;41157;53.560;10.098;2022-12-18T04:22:35;16.83;;;8.43;;
55292;SDS011;41157;53.560;10.098;2022-12-18T04:25:01;13.83;;;8.13;;
55292;SDS011;41157;53.560;10.098;2022-12-18T04:27:27;18.53;;;8.70;;
55292;SDS011;41157;53.560;10.098;2022-12-18T04:29:54;15.73;;;8.40;;
55292;SDS011;41157;53.560;10.098;2022-12-18T04:32:20;14.60;;;8.13;;
55292;SDS011;41157;53.560;10.098;2022-12-18T04:34:46;19.50;;;9.80;;
55292;SDS011;41157;53.560;10.098;2022-12-18T04:37:12;15.60;;;8.07;;
55292;SDS011;41157;53.560;10.098;2022-12-18T04:39:38;19.13;;;8.77;;
55292;SDS011;41157;53.560;10.098;2022-12-18T04:42:04;13.60;;;7.87;;
55292;SDS011;41157;53.560;10.098;2022-12-18T04:44:30;19.40;;;9.17;;
55292;SDS011;41157;53.560;10.098;2022-12-18T04:46:55;15.57;;;8.83;;
55292;SDS011;41157;53.560;10.098;2022-12-18T04:49:21;18.43;;;9.03;;
55292;SDS011;41157;53.560;10.098;2022-12-18T04:51:47;19.37;;;8.40;;
55292;SDS011;41157;53.560;10.098;2022-12-18T04:54:13;15.63;;;8.53;;
55292;SDS011;41157;53.560;10.098;2022-12-18T04:56:39;15.73;;;8.90;;
55292;SDS011;41157;53.560;10.098;2022-12-18T04:59:05;15.10;;;9.17;;
55292;SDS011;41157;53.560;10.098;2022-12-18T05:01:34;16.57;;;8.80;;
55292;SDS011;41157;53.560;10.098;2022-12-18T05:04:01;22.63;;;8.97;;
55292;SDS011;41157;53.560;10.098;2022-12-18T05:06:27;17.70;;;9.17;;
55292;SDS011;41157;53.560;10.098;2022-12-18T05:08:53;18.80;;;9.27;;
55292;SDS011;41157;53.560;10.098;2022-12-18T05:11:19;15.37;;;9.00;;
55292;SDS011;41157;53.560;10.098;2022-12-18T05:13:45;15.57;;;8.97;;
55292;SDS011;41157;53.560;10.098;2022-12-18T05:16:11;17.70;;;9.40;;
55292;SDS011;41157;53.560;10.098;2022-12-18T05:18:37;20.00;;;9.17;;
55292;SDS011;41157;53.560;10.098;2022-12-18T05:21:03;16.70;;;8.80;;
55292;SDS011;41157;53.560;10.098;2022-12-18T05:23:29;17.33;;;8.83;;
55292;SDS011;41157;53.560;10.098;2022-12-18T05:25:56;16.50;;;9.10;;
55292;SDS011;41157;53.560;10.098;2022-12-18T05:28:23;18.47;;;8.97;;
55292;SDS011;41157;53.560;10.098;2022-12-18T05:30:53;16.67;;;9.17;;
55292;SDS011;41157;53.560;10.098;2022-12-18T05:33:19;14.20;;;8.80;;
55292;SDS011;41157;53.560;10.098;2022-12-18T05:35:52;19.80;;;9.83;;
55292;SDS011;41157;53.560;10.098;2022-12-18T05:38:19;17.77;;;9.63;;
55292;SDS011;41157;53.560;10.098;2022-12-18T05:40:45;16.30;;;9.63;;
55292;SDS011;41157;53.560;10.098;2022-12-18T05:43:11;15.93;;;9.33;;
55292;SDS011;41157;53.560;10.098;2022-12-18T05:45:37;17.13;;;9.97;;
55292;SDS011;41157;53.560;10.098;2022-12-18T05:48:03;21.53;;;9.47;;
55292;SDS011;41157;53.560;10.098;2022-12-18T05:50:30;16.93;;;10.07;;
55292;SDS011;41157;53.560;10.098;2022-12-18T05:52:56;19.83;;;9.30;;
55292;SDS011;41157;53.560;10.098;2022-12-18T05:55:22;20.37;;;9.53;;
55292;SDS011;41157;53.560;10.098;2022-12-18T05:57:48;19.40;;;10.27;;
55292;SDS011;41157;53.560;10.098;2022-12-18T06:00:14;20.07;;;10.20;;
55292;SDS011;41157;53.560;10.098;2022-12-18T06:02:40;21.23;;;9.97;;
55292;SDS011;41157;53.560;10.098;2022-12-18T06:05:07;19.40;;;9.97;;
55292;SDS011;41157;53.560;10.098;2022-12-18T06:07:34;17.03;;;9.87;;
55292;SDS011;41157;53.560;10.098;2022-12-18T06:09:59;23.73;;;10.57;;
55292;SDS011;41157;53.560;10.098;2022-12-18T06:12:25;17.60;;;10.40;;
55292;SDS011;41157;53.560;10.098;2022-12-18T06:14:51;20.43;;;10.80;;
55292;SDS011;41157;53.560;10.098;2022-12-18T06:17:17;18.27;;;10.43;;
55292;SDS011;41157;53.560;10.098;2022-12-18T06:19:43;20.80;;;10.80;;
55292;SDS011;41157;53.560;10.098;2022-12-18T06:22:09;22.17;;;10.77;;
55292;SDS011;41157;53.560;10.098;2022-12-18T06:24:35;21.47;;;10.80;;
55292;SDS011;41157;53.560;10.098;2022-12-18T06:27:01;21.43;;;11.03;;
55292;SDS011;41157;53.560;10.098;2022-12-18T06:29:27;20.07;;;10.17;;
55292;SDS011;41157;53.560;10.098;2022-12-18T06:31:53;22.37;;;10.73;;
55292;SDS011;41157;53.560;10.098;2022-12-18T06:34:19;22.30;;;10.67;;
55292;SDS011;41157;53.560;10.098;2022-12-18T06:36:45;20.37;;;11.10;;
55292;SDS011;41157;53.560;10.098;2022-12-18T06:39:11;24.13;;;11.10;;
55292;SDS011;41157;53.560;10.098;2022-12-18T06:41:37;21.43;;;11.20;;
55292;SDS011;41157;53.560;10.098;2022-12-18T06:44:03;19.80;;;10.37;;
55292;SDS011;41157;53.560;10.098;2022-12-18T06:46:29;20.70;;;10.40;;
55292;SDS011;41157;53.560;10.098;2022-12-18T06:48:55;25.83;;;12.33;;
55292;SDS011;41157;53.560;10.098;2022-12-18T06:51:21;19.60;;;10.63;;
55292;SDS011;41157;53.560;10.098;2022-12-18T06:53:47;18.77;;;10.20;;
55292;SDS011;41157;53.560;10.098;2022-12-18T06:56:13;21.00;;;11.80;;
55292;SDS011;41157;53.560;10.098;2022-12-18T06:58:39;20.57;;;11.40;;
55292;SDS011;41157;53.560;10.098;2022-12-18T07:01:06;25.23;;;11.87;;
55292;SDS011;41157;53.560;10.098;2022-12-18T07:03:33;19.80;;;11.13;;
55292;SDS011;41157;53.560;10.098;2022-12-18T07:05:59;27.70;;;11.40;;
55292;SDS011;41157;53.560;10.098;2022-12-18T07:08:25;23.40;;;11.97;;
55292;SDS011;41157;53.560;10.098;2022-12-18T07:10:51;23.23;;;11.20;;
55292;SDS011;41157;53.560;10.098;2022-12-18T07:13:18;23.23;;;11.27;;
55292;SDS011;41157;53.560;10.098;2022-12-18T07:15:44;21.93;;;10.73;;
55292;SDS011;41157;53.560;10.098;2022-12-18T07:18:10;22.70;;;11.43;;
55292;SDS011;41157;53.560;10.098;2022-12-18T07:20:36;22.37;;;11.33;;
55292;SDS011;41157;53.560;10.098;2022-12-18T07:23:03;22.70;;;10.67;;
55292;SDS011;41157;53.560;10.098;2022-12-18T07:25:30;19.90;;;11.13;;
55292;SDS011;41157;53.560;10.098;2022-12-18T07:27:56;23.27;;;11.80;;
55292;SDS011;41157;53.560;10.098;2022-12-18T07:30:21;21.37;;;12.00;;
55292;SDS011;41157;53.560;10.098;2022-12-18T07:32:48;18.57;;;10.47;;
55292;SDS011;41157;53.560;10.098;2022-12-18T07:35:14;26.03;;;11.93;;
55292;SDS011;41157;53.560;10.098;2022-12-18T07:37:40;24.17;;;11.70;;
55292;SDS011;41157;53.560;10.098;2022-12-18T07:40:06;19.17;;;11.63;;
55292;SDS011;41157;53.560;10.098;2022-12-18T07:42:32;26.40;;;12.10;;
55292;SDS011;41157;53.560;10.098;2022-12-18T07:44:59;23.57;;;12.23;;
55292;SDS011;41157;53.560;10.098;2022-12-18T07:47:26;20.40;;;11.73;;
55292;SDS011;41157;53.560;10.098;2022-12-18T07:49:53;21.00;;;11.43;;
55292;SDS011;41157;53.560;10.098;2022-12-18T07:52:19;20.43;;;11.57;;
55292;SDS011;41157;53.560;10.098;2022-12-18T07:54:45;20.87;;;12.03;;
55292;SDS011;41157;53.560;10.098;2022-12-18T07:57:17;26.40;;;11.80;;
55292;SDS011;41157;53.560;10.098;2022-12-18T07:59:43;21.27;;;11.60;;
55292;SDS011;41157;53.560;10.098;2022-12-18T08:02:09;23.50;;;11.97;;
55292;SDS011;41157;53.560;10.098;2022-12-18T08:04:35;24.03;;;11.67;;
55292;SDS011;41157;53.560;10.098;2022-12-18T08:07:01;22.77;;;11.90;;
55292;SDS011;41157;53.560;10.098;2022-12-18T08:09:27;24.20;;;12.80;;
55292;SDS011;41157;53.560;10.098;2022-12-18T08:11:53;20.90;;;12.20;;
55292;SDS011;41157;53.560;10.098;2022-12-18T08:14:19;22.70;;;11.53;;
55292;SDS011;41157;53.560;10.098;2022-12-18T08:16:45;26.53;;;12.03;;
55292;SDS011;41157;53.560;10.098;2022-12-18T08:19:11;22.60;;;11.77;;
55292;SDS011;41157;53.560;10.098;2022-12-18T08:21:41;29.33;;;12.53;;
55292;SDS011;41157;53.560;10.098;2022-12-18T08:24:08;24.57;;;11.67;;
55292;SDS011;41157;53.560;10.098;2022-12-18T08:26:35;23.27;;;12.60;;
55292;SDS011;41157;53.560;10.098;2022-12-18T08:29:02;30.60;;;12.20;;
55292;SDS011;41157;53.560;10.098;2022-12-18T08:31:28;23.67;;;11.93;;
55292;SDS011;41157;53.560;10.098;2022-12-18T08:33:54;24.03;;;12.17;;
55292;SDS011;41157;53.560;10.098;2022-12-18T08:36:21;25.57;;;12.17;;
55292;SDS011;41157;53.560;10.098;2022-12-18T08:38:47;20.93;;;11.37;;
55292;SDS011;41157;53.560;10.098;2022-12-18T08:41:14;22.00;;;11.57;;
55292;SDS011;41157;53.560;10.098;2022-12-18T08:43:41;22.90;;;11.33;;
55292;SDS011;41157;53.560;10.098;2022-12-18T08:46:26;21.27;;;12.27;;
55292;SDS011;41157;53.560;10.098;2022-12-18T08:48:53;22.87;;;11.30;;
55292;SDS011;41157;53.560;10.098;2022-12-18T08:51:20;18.80;;;10.63;;
55292;SDS011;41157;53.560;10.098;2022-12-18T08:53:46;24.50;;;11.37;;
55292;SDS011;41157;53.560;10.098;2022-12-18T08:56:12;20.30;;;11.23;;
55292;SDS011;41157;53.560;10.098;2022-12-18T08:58:40;22.23;;;11.13;;
55292;SDS011;41157;53.560;10.098;2022-12-18T09:01:07;24.33;;;11.83;;
55292;SDS011;41157;53.560;10.098;2022-12-18T09:03:36;18.20;;;10.17;;
55292;SDS011;41157;53.560;10.098;2022-12-18T09:06:03;15.53;;;9.70;;
55292;SDS011;41157;53.560;10.098;2022-12-18T09:08:29;23.30;;;10.67;;
55292;SDS011;41157;53.560;10.098;2022-12-18T09:10:55;17.17;;;9.10;;
55292;SDS011;41157;53.560;10.098;2022-12-18T09:13:21;17.47;;;9.87;;
55292;SDS011;41157;53.560;10.098;2022-12-18T09:15:48;16.03;;;10.17;;
55292;SDS011;41157;53.560;10.098;2022-12-18T09:18:15;19.07;;;10.17;;
55292;SDS011;41157;53.560;10.098;2022-12-18T09:20:41;17.90;;;10.40;;
55292;SDS011;41157;53.560;10.098;2022-12-18T09:23:08;17.73;;;9.80;;
55292;SDS011;41157;53.560;10.098;2022-12-18T09:25:35;18.73;;;10.33;;
55292;SDS011;41157;53.560;10.098;2022-12-18T09:28:01;17.47;;;9.87;;
55292;SDS011;41157;53.560;10.098;2022-12-18T09:30:28;18.87;;;10.47;;
55292;SDS011;41157;53.560;10.098;2022-12-18T09:32:54;18.67;;;10.77;;
55292;SDS011;41157;53.560;10.098;2022-12-18T09:35:20;21.13;;;10.17;;
55292;SDS011;41157;53.560;10.098;2022-12-18T09:37:46;20.30;;;9.80;;
55292;SDS011;41157;53.560;10.098;2022-12-18T09:40:19;19.67;;;10.40;;
55292;SDS011;41157;53.560;10.098;2022-12-18T09:42:47;20.23;;;10.70;;
55292;SDS011;41157;53.560;10.098;2022-12-18T09:45:13;19.23;;;10.17;;
55292;SDS011;41157;53.560;10.098;2022-12-18T09:47:40;19.60;;;10.87;;
55292;SDS011;41157;53.560;10.098;2022-12-18T09:50:41;16.53;;;9.97;;
55292;SDS011;41157;53.560;10.098;2022-12-18T09:53:02;19.23;;;10.00;;
55292;SDS011;41157;53.560;10.098;2022-12-18T09:55:34;17.53;;;9.97;;
55292;SDS011;41157;53.560;10.098;2022-12-18T10:00:43;16.80;;;10.00;;
55292;SDS011;41157;53.560;10.098;2022-12-18T10:03:10;18.80;;;10.20;;
55292;SDS011;41157;53.560;10.098;2022-12-18T10:08:13;17.60;;;9.60;;
55292;SDS011;41157;53.560;10.098;2022-12-18T10:15:52;17.43;;;10.10;;
55292;SDS011;41157;53.560;10.098;2022-12-18T10:20:49;18.90;;;10.50;;
55292;SDS011;41157;53.560;10.098;2022-12-18T10:28:17;14.63;;;10.10;;
55292;SDS011;41157;53.560;10.098;2022-12-18T10:30:44;17.70;;;10.40;;
55292;SDS011;41157;53.560;10.098;2022-12-18T10:33:11;15.93;;;9.30;;
55292;SDS011;41157;53.560;10.098;2022-12-18T10:35:37;18.33;;;10.50;;
55292;SDS011;41157;53.560;10.098;2022-12-18T10:38:19;18.87;;;10.40;;
55292;SDS011;41157;53.560;10.098;2022-12-18T10:40:51;16.80;;;10.63;;
55292;SDS011;41157;53.560;10.098;2022-12-18T10:43:21;18.90;;;10.53;;
55292;SDS011;41157;53.560;10.098;2022-12-18T10:51:16;21.73;;;11.20;;
55292;SDS011;41157;53.560;10.098;2022-12-18T10:53:47;20.10;;;10.90;;
55292;SDS011;41157;53.560;10.098;2022-12-18T10:56:18;21.03;;;11.30;;
55292;SDS011;41157;53.560;10.098;2022-12-18T10:58:46;21.17;;;10.93;;
55292;SDS011;41157;53.560;10.098;2022-12-18T11:01:20;22.80;;;12.07;;
55292;SDS011;41157;53.560;10.098;2022-12-18T11:06:16;23.43;;;12.47;;
55292;SDS011;41157;53.560;10.098;2022-12-18T11:08:43;21.63;;;10.60;;
55292;SDS011;41157;53.560;10.098;2022-12-18T11:11:19;20.53;;;10.77;;
55292;SDS011;41157;53.560;10.098;2022-12-18T11:13:59;19.03;;;11.10;;
55292;SDS011;41157;53.560;10.098;2022-12-18T11:16:26;19.57;;;10.67;;
55292;SDS011;41157;53.560;10.098;2022-12-18T11:18:53;20.10;;;11.47;;
55292;SDS011;41157;53.560;10.098;2022-12-18T11:21:19;16.23;;;10.07;;
55292;SDS011;41157;53.560;10.098;2022-12-18T11:23:49;20.83;;;10.20;;
55292;SDS011;41157;53.560;10.098;2022-12-18T11:26:16;20.40;;;10.93;;
55292;SDS011;41157;53.560;10.098;2022-12-18T11:28:52;19.27;;;10.23;;
55292;SDS011;41157;53.560;10.098;2022-12-18T11:31:28;19.40;;;10.80;;
55292;SDS011;41157;53.560;10.098;2022-12-18T11:36:43;20.47;;;11.43;;
55292;SDS011;41157;53.560;10.098;2022-12-18T11:39:17;17.90;;;10.17;;
55292;SDS011;41157;53.560;10.098;2022-12-18T11:41:55;15.73;;;9.70;;
55292;SDS011;41157;53.560;10.098;2022-12-18T11:47:15;16.43;;;9.70;;
55292;SDS011;41157;53.560;10.098;2022-12-18T11:49:45;19.83;;;10.13;;
55292;SDS011;41157;53.560;10.098;2022-12-18T11:52:18;18.03;;;10.43;;
55292;SDS011;41157;53.560;10.098;2022-12-18T11:54:45;18.97;;;10.33;;
55292;SDS011;41157;53.560;10.098;2022-12-18T11:59:47;22.27;;;11.20;;
55292;SDS011;41157;53.560;10.098;2022-12-18T12:02:22;22.07;;;10.70;;
55292;SDS011;41157;53.560;10.098;2022-12-18T12:05:11;21.83;;;10.90;;
55292;SDS011;41157;53.560;10.098;2022-12-18T12:07:45;20.20;;;10.03;;
55292;SDS011;41157;53.560;10.098;2022-12-18T12:10:25;19.47;;;10.80;;
55292;SDS011;41157;53.560;10.098;2022-12-18T12:23:32;22.00;;;10.37;;
55292;SDS011;41157;53.560;10.098;2022-12-18T12:26:11;18.83;;;9.83;;
55292;SDS011;41157;53.560;10.098;2022-12-18T12:28:57;21.23;;;11.10;;
55292;SDS011;41157;53.560;10.098;2022-12-18T12:31:36;18.43;;;10.70;;
55292;SDS011;41157;53.560;10.098;2022-12-18T12:34:09;21.37;;;10.70;;
55292;SDS011;41157;53.560;10.098;2022-12-18T12:36:42;22.07;;;11.60;;
55292;SDS011;41157;53.560;10.098;2022-12-18T12:39:14;22.43;;;11.20;;
55292;SDS011;41157;53.560;10.098;2022-12-18T12:41:42;28.13;;;11.70;;
55292;SDS011;41157;53.560;10.098;2022-12-18T12:44:32;23.63;;;11.63;;
55292;SDS011;41157;53.560;10.098;2022-12-18T12:47:02;19.93;;;11.17;;
55292;SDS011;41157;53.560;10.098;2022-12-18T12:49:32;22.47;;;11.60;;
55292;SDS011;41157;53.560;10.098;2022-12-18T12:52:11;18.13;;;11.47;;
55292;SDS011;41157;53.560;10.098;2022-12-18T12:54:38;21.80;;;11.57;;
55292;SDS011;41157;53.560;10.098;2022-12-18T12:57:09;19.40;;;11.27;;
55292;SDS011;41157;53.560;10.098;2022-12-18T13:07:16;18.90;;;10.90;;
55292;SDS011;41157;53.560;10.098;2022-12-18T13:12:29;21.03;;;11.80;;
55292;SDS011;41157;53.560;10.098;2022-12-18T13:15:21;22.17;;;11.90;;
55292;SDS011;41157;53.560;10.098;2022-12-18T13:17:48;22.20;;;11.63;;
55292;SDS011;41157;53.560;10.098;2022-12-18T13:20:14;23.87;;;12.33;;
55292;SDS011;41157;53.560;10.098;2022-12-18T13:22:44;21.03;;;11.97;;
55292;SDS011;41157;53.560;10.098;2022-12-18T13:25:44;23.80;;;12.50;;
55292;SDS011;41157;53.560;10.098;2022-12-18T13:38:55;25.10;;;12.10;;
55292;SDS011;41157;53.560;10.098;2022-12-18T13:41:01;21.77;;;12.03;;
55292;SDS011;41157;53.560;10.098;2022-12-18T13:43:32;25.00;;;11.90;;
55292;SDS011;41157;53.560;10.098;2022-12-18T13:48:26;21.07;;;12.00;;
55292;SDS011;41157;53.560;10.098;2022-12-18T13:50:57;24.10;;;12.23;;
55292;SDS011;41157;53.560;10.098;2022-12-18T13:53:28;21.53;;;11.63;;
55292;SDS011;41157;53.560;10.098;2022-12-18T13:55:55;25.30;;;11.90;;
55292;SDS011;41157;53.560;10.098;2022-12-18T13:58:21;22.97;;;12.30;;
55292;SDS011;41157;53.560;10.098;2022-12-18T14:00:47;25.00;;;12.30;;
55292;SDS011;41157;53.560;10.098;2022-12-18T14:03:17;25.50;;;12.00;;
55292;SDS011;41157;53.560;10.098;2022-12-18T14:05:44;25.67;;;12.47;;
55292;SDS011;41157;53.560;10.098;2022-12-18T14:08:12;23.73;;;12.43;;
55292;SDS011;41157;53.560;10.098;2022-12-18T14:10:43;26.60;;;12.47;;
55292;SDS011;41157;53.560;10.098;2022-12-18T14:13:10;24.20;;;13.00;;
55292;SDS011;41157;53.560;10.098;2022-12-18T14:15:41;29.90;;;12.47;;
55292;SDS011;41157;53.560;10.098;2022-12-18T14:20:54;29.67;;;14.40;;
55292;SDS011;41157;53.560;10.098;2022-12-18T14:23:34;24.13;;;12.53;;
55292;SDS011;41157;53.560;10.098;2022-12-18T14:26:01;26.50;;;13.93;;
55292;SDS011;41157;53.560;10.098;2022-12-18T14:28:27;30.63;;;13.23;;
55292;SDS011;41157;53.560;10.098;2022-12-18T14:30:54;26.77;;;14.43;;
55292;SDS011;41157;53.560;10.098;2022-12-18T14:33:24;27.63;;;13.30;;
55292;SDS011;41157;53.560;10.098;2022-12-18T14:36:01;33.00;;;15.10;;
55292;SDS011;41157;53.560;10.098;2022-12-18T14:38:28;30.93;;;15.27;;
55292;SDS011;41157;53.560;10.098;2022-12-18T14:40:59;29.20;;;14.70;;
55292;SDS011;41157;53.560;10.098;2022-12-18T14:43:26;32.40;;;14.73;;
55292;SDS011;41157;53.560;10.098;2022-12-18T14:45:52;30.73;;;14.13;;
55292;SDS011;41157;53.560;10.098;2022-12-18T14:48:22;35.60;;;15.13;;
55292;SDS011;41157;53.560;10.098;2022-12-18T14:50:55;32.47;;;14.90;;
55292;SDS011;41157;53.560;10.098;2022-12-18T14:53:28;34.70;;;15.03;;
55292;SDS011;41157;53.560;10.098;2022-12-18T14:55:57;34.97;;;15.10;;
55292;SDS011;41157;53.560;10.098;2022-12-18T14:58:23;37.77;;;15.87;;
55292;SDS011;41157;53.560;10.098;2022-12-18T15:00:49;38.97;;;16.77;;
55292;SDS011;41157;53.560;10.098;2022-12-18T15:03:17;35.00;;;15.47;;
55292;SDS011;41157;53.560;10.098;2022-12-18T15:05:44;31.30;;;14.77;;
55292;SDS011;41157;53.560;10.098;2022-12-18T15:08:28;37.47;;;15.93;;
55292;SDS011;41157;53.560;10.098;2022-12-18T15:10:54;34.97;;;15.07;;
55292;SDS011;41157;53.560;10.098;2022-12-18T15:13:22;30.87;;;14.97;;
55292;SDS011;41157;53.560;10.098;2022-12-18T15:15:49;34.47;;;15.57;;
55292;SDS011;41157;53.560;10.098;2022-12-18T15:18:16;33.90;;;14.70;;
55292;SDS011;41157;53.560;10.098;2022-12-18T15:20:50;33.00;;;15.83;;
55292;SDS011;41157;53.560;10.098;2022-12-18T15:25:45;34.63;;;14.30;;
55292;SDS011;41157;53.560;10.098;2022-12-18T15:28:19;34.93;;;14.57;;
55292;SDS011;41157;53.560;10.098;2022-12-18T15:36:18;33.10;;;15.17;;
55292;SDS011;41157;53.560;10.098;2022-12-18T15:38:48;39.00;;;15.37;;
55292;SDS011;41157;53.560;10.098;2022-12-18T15:41:15;36.13;;;16.50;;
55292;SDS011;41157;53.560;10.098;2022-12-18T15:43:42;34.30;;;15.40;;
55292;SDS011;41157;53.560;10.098;2022-12-18T15:48:39;31.73;;;15.10;;
55292;SDS011;41157;53.560;10.098;2022-12-18T15:51:08;33.70;;;14.97;;
55292;SDS011;41157;53.560;10.098;2022-12-18T15:53:36;32.47;;;13.90;;
55292;SDS011;41157;53.560;10.098;2022-12-18T15:56:07;33.20;;;14.70;;
55292;SDS011;41157;53.560;10.098;2022-12-18T15:59:01;32.60;;;14.90;;